createdAt,value
2018-10-16T04:32:56.086Z,14.40
2018-10-16T04:35:24.595Z,13.80
2018-10-16T04:37:53.009Z,14.53
2018-10-16T04:40:21.010Z,15.20
2018-10-16T04:42:49.065Z,15.07
2018-10-16T04:45:17.109Z,13.97
2018-10-16T04:47:45.763Z,14.83
2018-10-16T04:50:13.925Z,14.53
2018-10-16T04:52:41.916Z,15.63
2018-10-16T04:55:11.035Z,15.10
2018-10-16T04:57:39.010Z,14.57
2018-10-16T05:00:07.913Z,15.33
2018-10-16T05:02:35.852Z,15.50
2018-10-16T05:05:03.851Z,14.43
2018-10-16T05:07:31.913Z,14.63
2018-10-16T05:09:59.981Z,14.87
2018-10-16T05:12:28.011Z,13.97
2018-10-16T05:14:56.071Z,14.60
2018-10-16T05:17:24.455Z,14.23
2018-10-16T05:19:52.499Z,15.63
2018-10-16T05:22:20.582Z,17.73
2018-10-16T05:24:48.603Z,18.03
2018-10-16T05:27:16.597Z,19.97
2018-10-16T05:29:44.901Z,20.37
2018-10-16T05:32:13.133Z,20.00
2018-10-16T05:34:41.151Z,16.67
2018-10-16T05:37:09.437Z,17.83
2018-10-16T05:39:37.467Z,15.20
2018-10-16T05:42:05.550Z,16.27
2018-10-16T05:44:33.532Z,14.73
2018-10-16T05:47:01.759Z,15.90
2018-10-16T05:49:30.105Z,16.10
2018-10-16T05:51:58.206Z,15.27
2018-10-16T05:54:26.238Z,15.53
2018-10-16T05:56:54.259Z,15.93
2018-10-16T05:59:22.319Z,16.07
2018-10-16T06:01:50.375Z,15.77
2018-10-16T06:04:18.366Z,14.37
2018-10-16T06:06:46.451Z,14.53
2018-10-16T06:09:14.553Z,15.03
2018-10-16T06:11:42.546Z,15.20
2018-10-16T06:14:10.563Z,15.37
2018-10-16T06:16:38.518Z,15.37
2018-10-16T06:19:06.528Z,15.03
2018-10-16T06:21:34.656Z,14.47
2018-10-16T06:24:02.621Z,13.90
2018-10-16T06:26:30.693Z,15.37
2018-10-16T06:28:58.660Z,14.93
2018-10-16T06:31:27.012Z,16.10
2018-10-16T06:33:55.297Z,14.23
2018-10-16T06:36:23.297Z,15.10
2018-10-16T06:38:51.266Z,14.80
2018-10-16T06:41:20.168Z,14.57
2018-10-16T06:43:48.171Z,15.05
2018-10-16T06:46:16.793Z,14.03
2018-10-16T06:48:45.311Z,13.77
2018-10-16T06:51:13.010Z,14.07
2018-10-16T06:53:41.161Z,13.03
2018-10-16T06:56:09.197Z,13.90
2018-10-16T06:58:37.178Z,14.30
2018-10-16T07:01:05.271Z,13.93
2018-10-16T07:03:33.276Z,14.50
2018-10-16T07:06:01.254Z,14.53
2018-10-16T07:08:29.267Z,12.60
2018-10-16T07:10:57.349Z,13.70
2018-10-16T07:13:25.595Z,13.50
2018-10-16T07:15:53.739Z,12.80
2018-10-16T07:18:21.805Z,13.10
2018-10-16T07:20:49.857Z,13.73
2018-10-16T07:23:17.879Z,12.57
2018-10-16T07:25:45.909Z,14.47
2018-10-16T07:28:13.907Z,13.10
2018-10-16T07:30:41.913Z,13.60
2018-10-16T07:33:09.985Z,12.90
2018-10-16T07:35:38.348Z,12.63
2018-10-16T07:38:06.417Z,14.40
2018-10-16T07:40:34.406Z,13.27
2018-10-16T07:43:02.489Z,12.10
2018-10-16T07:45:30.507Z,12.20
2018-10-16T07:47:58.502Z,12.03
2018-10-16T07:50:26.483Z,13.90
2018-10-16T07:52:54.504Z,11.87
2018-10-16T07:55:22.575Z,13.70
2018-10-16T07:57:51.481Z,12.63
2018-10-16T08:00:19.661Z,13.00
2018-10-16T08:02:48.004Z,11.07
2018-10-16T08:05:15.971Z,12.13
2018-10-16T08:07:44.438Z,12.10
2018-10-16T08:10:13.385Z,13.17
2018-10-16T08:12:41.522Z,12.20
2018-10-16T08:15:10.245Z,12.43
2018-10-16T08:17:38.985Z,12.20
2018-10-16T08:20:07.017Z,12.57
2018-10-16T08:22:35.440Z,12.43
2018-10-16T08:25:03.844Z,11.37
2018-10-16T08:27:31.860Z,12.07
2018-10-16T08:29:59.989Z,12.60
2018-10-16T08:32:27.954Z,11.77
2018-10-16T08:34:56.642Z,11.30
2018-10-16T08:37:30.104Z,11.97
2018-10-16T08:39:59.133Z,11.90
2018-10-16T08:42:34.145Z,12.27
2018-10-16T08:45:09.342Z,11.70
2018-10-16T08:47:43.178Z,12.40
2018-10-16T08:50:16.887Z,12.60
2018-10-16T08:52:44.953Z,11.73
2018-10-16T08:55:13.072Z,11.53
2018-10-16T08:57:41.171Z,11.43
2018-10-16T09:00:09.509Z,11.10
2018-10-16T09:02:38.133Z,12.37
2018-10-16T09:05:06.260Z,11.27
2018-10-16T09:07:34.290Z,11.27
2018-10-16T09:10:02.505Z,13.10
2018-10-16T09:12:30.550Z,12.17
2018-10-16T09:14:58.614Z,12.30
2018-10-16T09:17:27.055Z,12.00
2018-10-16T09:19:55.771Z,10.57
2018-10-16T09:22:23.787Z,11.90
2018-10-16T09:24:52.044Z,13.30
2018-10-16T09:27:19.991Z,12.10
2018-10-16T09:29:48.895Z,11.97
2018-10-16T09:32:16.996Z,12.20
2018-10-16T09:34:45.585Z,11.73
2018-10-16T09:37:14.071Z,11.30
2018-10-16T09:39:42.270Z,11.73
2018-10-16T09:42:10.189Z,11.13
2018-10-16T09:44:38.776Z,10.87
2018-10-16T09:47:07.231Z,11.83
2018-10-16T09:49:36.803Z,12.10
2018-10-16T09:52:05.051Z,11.60
2018-10-16T09:54:33.495Z,11.70
2018-10-16T09:57:01.726Z,11.33
2018-10-16T09:59:29.770Z,12.00
2018-10-16T10:01:57.997Z,10.83
2018-10-16T10:04:26.049Z,11.20
2018-10-16T10:06:54.455Z,11.67
2018-10-16T10:09:22.868Z,11.70
2018-10-16T10:11:51.050Z,10.90
2018-10-16T10:14:19.350Z,11.80
2018-10-16T10:16:47.830Z,10.87
2018-10-16T10:19:16.333Z,10.90
2018-10-16T10:21:44.712Z,10.57
2018-10-16T10:24:12.666Z,10.63
2018-10-16T10:26:41.597Z,11.33
2018-10-16T10:29:09.789Z,11.00
2018-10-16T10:31:38.002Z,10.70
2018-10-16T10:34:06.293Z,10.77
2018-10-16T10:36:34.350Z,11.13
2018-10-16T10:39:03.091Z,10.90
2018-10-16T10:41:31.097Z,10.90
2018-10-16T10:43:59.232Z,9.90
2018-10-16T10:46:27.312Z,11.10
2018-10-16T10:48:56.029Z,10.53
2018-10-16T10:51:25.311Z,10.20
2018-10-16T10:53:52.995Z,11.07
2018-10-16T10:56:21.182Z,10.00
2018-10-16T10:58:49.163Z,10.10
2018-10-16T11:01:17.193Z,8.97
2018-10-16T11:03:45.735Z,10.40
2018-10-16T11:06:13.757Z,10.63
2018-10-16T11:08:42.007Z,10.40
2018-10-16T11:11:09.973Z,10.70
2018-10-16T11:13:37.992Z,9.50
2018-10-16T11:16:06.028Z,10.77
2018-10-16T11:18:34.067Z,10.20
2018-10-16T11:21:02.141Z,9.30
2018-10-16T11:23:30.065Z,9.80
2018-10-16T11:25:58.091Z,9.00
2018-10-16T11:28:26.091Z,8.93
2018-10-16T11:30:54.114Z,9.57
2018-10-16T11:33:22.097Z,9.10
2018-10-16T11:35:50.130Z,8.77
2018-10-16T11:38:18.130Z,8.17
2018-10-16T11:40:46.392Z,8.57
2018-10-16T11:43:14.377Z,8.73
2018-10-16T11:45:43.224Z,9.10
2018-10-16T11:48:11.499Z,9.30
2018-10-16T11:50:39.502Z,8.70
2018-10-16T11:53:07.529Z,8.77
2018-10-16T11:55:35.545Z,8.80
2018-10-16T11:58:03.803Z,8.63
2018-10-16T12:00:31.845Z,8.27
2018-10-16T12:02:59.833Z,8.20
2018-10-16T12:05:27.946Z,7.83
2018-10-16T12:07:56.054Z,8.53
2018-10-16T12:10:24.316Z,8.00
2018-10-16T12:12:52.288Z,7.27
2018-10-16T12:15:20.619Z,7.30
2018-10-16T12:17:59.074Z,8.33
2018-10-16T12:20:32.442Z,7.20
2018-10-16T12:23:00.419Z,7.60
2018-10-16T12:25:28.395Z,7.13
2018-10-16T12:27:56.655Z,7.60
2018-10-16T12:30:24.889Z,8.17
2018-10-16T12:32:52.898Z,8.60
2018-10-16T12:35:20.823Z,9.33
2018-10-16T12:37:48.798Z,8.67
2018-10-16T12:40:16.852Z,8.63
2018-10-16T12:42:44.810Z,7.50
2018-10-16T12:45:12.824Z,9.27
2018-10-16T12:47:40.696Z,8.40
2018-10-16T12:50:08.703Z,9.00
2018-10-16T12:52:36.650Z,7.87
2018-10-16T12:55:04.654Z,8.80
2018-10-16T12:57:32.593Z,8.13
2018-10-16T13:00:00.644Z,8.47
2018-10-16T13:02:28.637Z,8.20
2018-10-16T13:04:56.648Z,8.73
2018-10-16T13:07:32.153Z,7.80
2018-10-16T13:10:00.118Z,8.77
2018-10-16T13:12:28.137Z,8.77
2018-10-16T13:14:56.132Z,9.20
2018-10-16T13:17:24.185Z,8.23
2018-10-16T13:19:52.161Z,8.40
2018-10-16T13:22:20.155Z,8.40
2018-10-16T13:24:48.245Z,7.80
2018-10-16T13:27:16.227Z,7.87
2018-10-16T13:29:44.302Z,7.93
2018-10-16T13:32:12.187Z,8.20
2018-10-16T13:34:40.505Z,9.20
2018-10-16T13:37:08.688Z,8.50
2018-10-16T13:39:37.000Z,9.50
2018-10-16T13:42:06.431Z,9.23
2018-10-16T13:44:34.508Z,8.70
2018-10-16T13:47:02.793Z,8.67
2018-10-16T13:49:31.051Z,8.73
2018-10-16T13:51:59.086Z,8.60
2018-10-16T13:54:27.117Z,8.23
2018-10-16T13:56:55.481Z,8.77
2018-10-16T13:59:23.682Z,8.70
2018-10-16T14:01:51.714Z,8.40
2018-10-16T14:04:19.800Z,8.70
2018-10-16T14:06:47.820Z,7.87
2018-10-16T14:09:15.843Z,8.03
2018-10-16T14:11:44.159Z,8.77
2018-10-16T14:14:12.221Z,7.77
2018-10-16T14:16:40.237Z,8.30
2018-10-16T14:19:08.212Z,8.63
2018-10-16T14:21:36.527Z,9.07
2018-10-16T14:24:04.884Z,8.03
2018-10-16T14:26:33.249Z,8.30
2018-10-16T14:29:01.250Z,7.67
2018-10-16T14:31:29.511Z,8.80
2018-10-16T14:33:57.794Z,8.23
2018-10-16T14:36:25.801Z,8.20
2018-10-16T14:38:54.127Z,8.50
2018-10-16T14:41:22.189Z,7.90
2018-10-16T14:43:50.214Z,7.60
2018-10-16T14:46:18.244Z,8.07
2018-10-16T14:48:46.314Z,7.90
2018-10-16T14:51:16.671Z,9.67
2018-10-16T14:53:44.731Z,7.93
2018-10-16T14:56:12.852Z,8.03
2018-10-16T14:58:40.800Z,8.77
2018-10-16T15:01:09.080Z,8.73
2018-10-16T15:03:37.122Z,8.23
2018-10-16T15:06:05.174Z,8.60
2018-10-16T15:08:33.178Z,8.37
2018-10-16T15:11:01.214Z,7.33
2018-10-16T15:13:29.775Z,8.47
2018-10-16T15:16:02.835Z,8.20
2018-10-16T15:18:30.847Z,8.23
2018-10-16T15:20:58.907Z,8.13
2018-10-16T15:23:27.168Z,8.03
2018-10-16T15:25:55.526Z,7.53
2018-10-16T15:28:23.957Z,7.50
2018-10-16T15:30:51.976Z,8.43
2018-10-16T15:33:20.245Z,8.60
2018-10-16T15:35:48.281Z,7.70
2018-10-16T15:38:16.515Z,7.90
2018-10-16T15:40:44.598Z,7.87
2018-10-16T15:43:12.609Z,9.00
2018-10-16T15:45:40.859Z,9.20
2018-10-16T15:48:09.425Z,8.43
2018-10-16T15:50:37.667Z,9.00
2018-10-16T15:53:05.699Z,8.87
2018-10-16T15:55:33.879Z,8.67
2018-10-16T15:58:01.950Z,8.40
2018-10-16T16:00:29.912Z,8.00
2018-10-16T16:02:57.938Z,8.60
2018-10-16T16:05:25.950Z,9.53
2018-10-16T16:07:53.970Z,8.33
2018-10-16T16:10:21.929Z,8.27
2018-10-16T16:12:49.909Z,8.63
2018-10-16T16:15:18.119Z,9.27
2018-10-16T16:17:46.193Z,9.20
2018-10-16T16:20:14.940Z,8.53
2018-10-16T16:22:43.009Z,8.53
2018-10-16T16:25:12.287Z,9.00
2018-10-16T16:27:40.303Z,8.73
2018-10-16T16:30:09.290Z,9.03
2018-10-16T16:32:37.228Z,8.50
2018-10-16T16:35:05.721Z,13.37
2018-10-16T16:37:33.694Z,14.90
2018-10-16T16:40:01.759Z,9.47
2018-10-16T16:42:29.761Z,9.60
2018-10-16T16:44:57.731Z,8.43
2018-10-16T16:47:25.763Z,9.70
2018-10-16T16:49:53.827Z,8.43
2018-10-16T16:52:21.833Z,8.50
2018-10-16T16:54:49.884Z,9.57
2018-10-16T16:57:17.945Z,9.90
2018-10-16T16:59:46.205Z,10.10
2018-10-16T17:02:14.618Z,9.50
2018-10-16T17:04:43.200Z,9.50
2018-10-16T17:07:11.732Z,9.53
2018-10-16T17:09:40.227Z,9.50
2018-10-16T17:12:08.580Z,10.13
2018-10-16T17:14:37.355Z,9.47
2018-10-16T17:17:06.314Z,9.00
2018-10-16T17:19:34.464Z,10.53
2018-10-16T17:22:03.239Z,10.37
2018-10-16T17:24:31.692Z,9.17
2018-10-16T17:27:00.593Z,9.03
2018-10-16T17:29:28.681Z,9.80
2018-10-16T17:31:56.753Z,10.20
2018-10-16T17:34:25.266Z,9.60
2018-10-16T17:36:53.808Z,10.53
2018-10-16T17:39:23.001Z,10.57
2018-10-16T17:41:51.645Z,9.73
2018-10-16T17:44:20.366Z,10.40
2018-10-16T17:46:48.815Z,10.37
2018-10-16T17:49:17.526Z,10.87
2018-10-16T17:51:46.286Z,11.20
2018-10-16T17:54:15.034Z,10.63
2018-10-16T17:56:43.399Z,11.53
2018-10-16T17:59:11.819Z,11.83
2018-10-16T18:01:39.946Z,12.17
2018-10-16T18:04:08.066Z,13.27
2018-10-16T18:06:36.048Z,12.57
2018-10-16T18:09:04.697Z,11.87
2018-10-16T18:11:33.144Z,12.60
2018-10-16T18:14:01.489Z,11.80
2018-10-16T18:16:29.561Z,12.50
2018-10-16T18:18:58.048Z,12.63
2018-10-16T18:21:26.341Z,13.10
2018-10-16T18:23:55.451Z,12.13
2018-10-16T18:26:24.382Z,12.10
2018-10-16T18:28:52.890Z,12.80
2018-10-16T18:31:23.420Z,12.30
2018-10-16T18:33:52.183Z,13.37
2018-10-16T18:36:20.575Z,12.37
2018-10-16T18:38:49.176Z,11.87
2018-10-16T18:41:17.702Z,11.80
2018-10-16T18:43:46.365Z,12.97
2018-10-16T18:46:15.007Z,14.17
2018-10-16T18:48:43.509Z,13.57
2018-10-16T18:51:12.136Z,13.20
2018-10-16T18:53:40.636Z,11.70
2018-10-16T18:56:09.306Z,13.17
2018-10-16T18:58:37.630Z,13.40
2018-10-16T19:01:06.083Z,12.93
2018-10-16T19:03:34.601Z,12.10
2018-10-16T19:06:03.162Z,11.53
2018-10-16T19:08:31.568Z,12.60
2018-10-16T19:11:01.219Z,12.20
2018-10-16T19:13:29.867Z,12.33
2018-10-16T19:15:59.012Z,13.70
2018-10-16T19:18:27.512Z,11.13
2018-10-16T19:20:56.132Z,13.23
2018-10-16T19:23:24.698Z,12.23
2018-10-16T19:25:53.144Z,13.20
2018-10-16T19:28:21.622Z,13.00
2018-10-16T19:30:50.428Z,13.70
2018-10-16T19:33:19.069Z,12.70
2018-10-16T19:35:47.484Z,13.40
2018-10-16T19:38:15.947Z,13.40
2018-10-16T19:40:44.340Z,13.17
2018-10-16T19:43:12.781Z,13.70
2018-10-16T19:45:41.402Z,13.60
2018-10-16T19:48:09.825Z,14.60
2018-10-16T19:50:38.265Z,13.47
2018-10-16T19:53:06.950Z,13.43
2018-10-16T19:55:35.527Z,13.90
2018-10-16T19:58:04.073Z,14.37
2018-10-16T20:00:32.582Z,13.17
2018-10-16T20:03:01.279Z,12.03
2018-10-16T20:05:45.880Z,13.47
2018-10-16T20:08:14.436Z,13.80
2018-10-16T20:10:42.932Z,14.00
2018-10-16T20:13:11.541Z,13.80
2018-10-16T20:15:40.108Z,16.23
2018-10-16T20:18:08.703Z,14.63
2018-10-16T20:20:37.436Z,14.17
2018-10-16T20:23:05.945Z,14.20
2018-10-16T20:25:34.990Z,15.80
2018-10-16T20:28:04.076Z,13.90
2018-10-16T20:30:33.741Z,14.87
2018-10-16T20:33:02.496Z,14.47
2018-10-16T20:35:37.113Z,14.60
2018-10-16T20:38:05.406Z,15.53
2018-10-16T20:40:34.300Z,14.80
2018-10-16T20:43:02.568Z,15.83
2018-10-16T20:45:31.185Z,14.80
2018-10-16T20:47:59.376Z,15.60
2018-10-16T20:50:27.654Z,16.47
2018-10-16T20:52:56.049Z,15.47
2018-10-16T20:55:24.464Z,16.37
2018-10-16T20:57:53.309Z,15.70
2018-10-16T21:00:21.907Z,16.00
2018-10-16T21:02:50.316Z,15.50
2018-10-16T21:05:18.688Z,15.70
2018-10-16T21:07:46.899Z,16.70
2018-10-16T21:10:15.530Z,15.80
2018-10-16T21:12:45.171Z,16.57
2018-10-16T21:15:13.514Z,16.43
2018-10-16T21:17:42.176Z,14.07
2018-10-16T21:20:10.891Z,16.33
2018-10-16T21:22:39.511Z,17.50
2018-10-16T21:25:09.083Z,17.23
2018-10-16T21:27:39.174Z,17.73
2018-10-16T21:30:08.605Z,15.63
2018-10-16T21:32:38.425Z,16.53
2018-10-16T21:35:12.082Z,16.47
2018-10-16T21:37:40.845Z,16.93
2018-10-16T21:40:09.588Z,16.90
2018-10-16T21:42:39.023Z,17.43
2018-10-16T21:45:08.506Z,17.67
2018-10-16T21:47:37.188Z,18.10
2018-10-16T21:50:07.063Z,18.73
2018-10-16T21:52:35.669Z,17.90
2018-10-16T21:55:04.504Z,18.23
2018-10-16T21:57:32.956Z,17.13
2018-10-16T22:00:04.954Z,18.40
